nws-alerts: Checking more than four warning/county codes can delay the loading of your pages. You should use a cron job to get the data.
EllijayWeather Station Historical Data
Daily Summary for May 14, 2019 Units:  English    Metric   Both
Daily Weekly Monthly Yearly Custom
  High: Low: Average:
Temperature: 67.5 °F 45 °F 55.6 °F
Dew Point: 48.7 °F 42.4 °F 45.3 °F
Humidity: 96% 41% 72%
Wind Speed: 6mph 0mph 0.6mph
Wind Gust: 13mph - -
Wind- - WSW
Pressure: 30.08 in 29.96 in -
Precipitation: 0.01 in    
Historical Graphs
 
 
Tabular Data for May 14, 2019
Time Temperature Dew Point Pressure Wind Wind Speed Wind Gust Humidity Rainfall Rate (Hourly) solar
00:04 48.7 °F 46.8 °F 30.00 in Calm     93% 0 in meteobridge W/m2
00:09 48.7 °F 46.8 °F 30.00 in Calm     93% 0 in meteobridge W/m2
00:14 48.6 °F 46.6 °F 29.99 in Calm     93% 0 in meteobridge W/m2
00:19 48.6 °F 46.6 °F 29.99 in Calm     93% 0 in meteobridge W/m2
00:24 48.4 °F 46.4 °F 30.00 in Calm     93% 0 in meteobridge W/m2
00:29 48.4 °F 46.4 °F 30.00 in Calm     93% 0 in meteobridge W/m2
00:34 48.4 °F 46.4 °F 30.00 in Calm     93% 0 in meteobridge W/m2
00:39 48.4 °F 46.4 °F 30.00 in Calm     93% 0 in meteobridge W/m2
00:44 48.4 °F 46.4 °F 30.00 in Calm     93% 0 in meteobridge W/m2
00:49 48.2 °F 46.2 °F 30.00 in Calm     93% 0 in meteobridge W/m2
00:54 48 °F 46 °F 30.00 in Calm     93% 0 in meteobridge W/m2
00:59 48.2 °F 46.6 °F 30.00 in Calm     94% 0 in meteobridge W/m2
01:04 48 °F 46 °F 30.00 in Calm   1 mph 93% 0 in meteobridge W/m2
01:09 48 °F 46 °F 30.00 in Calm     93% 0 in meteobridge W/m2
01:14 48 °F 46 °F 30.00 in Calm     93% 0 in meteobridge W/m2
01:19 47.8 °F 45.9 °F 30.00 in Calm     93% 0 in meteobridge W/m2
01:24 47.8 °F 45.9 °F 30.00 in Calm     93% 0 in meteobridge W/m2
01:29 47.8 °F 45.9 °F 30.00 in Calm     93% 0 in meteobridge W/m2
01:34 47.7 °F 45.7 °F 30.00 in Calm     93% 0 in meteobridge W/m2
01:39 47.7 °F 45.7 °F 29.99 in Calm     93% 0 in meteobridge W/m2
01:44 47.7 °F 45.7 °F 29.99 in Calm     93% 0 in meteobridge W/m2
01:49 47.8 °F 45.9 °F 29.99 in Calm     93% 0 in meteobridge W/m2
01:54 47.8 °F 45.7 °F 29.99 in Calm   1 mph 92% 0 in meteobridge W/m2
01:59 47.8 °F 45.7 °F 29.98 in Calm     92% 0 in meteobridge W/m2
02:04 47.8 °F 45.7 °F 29.98 in Calm     92% 0 in meteobridge W/m2
02:09 47.8 °F 45.7 °F 29.98 in Calm     92% 0 in meteobridge W/m2
02:14 47.8 °F 45.7 °F 29.98 in Calm     92% 0 in meteobridge W/m2
02:19 47.8 °F 45.7 °F 29.98 in Calm     92% 0 in meteobridge W/m2
02:24 47.8 °F 45.7 °F 29.98 in Calm     92% 0 in meteobridge W/m2
02:29 47.8 °F 45.7 °F 29.98 in Calm     92% 0 in meteobridge W/m2
02:34 47.8 °F 45.3 °F 29.98 in Calm     91% 0 in meteobridge W/m2
02:39 47.7 °F 45.1 °F 29.98 in Calm     91% 0 in meteobridge W/m2
02:44 47.7 °F 45.5 °F 29.97 in Calm     92% 0 in meteobridge W/m2
02:49 47.7 °F 45.1 °F 29.97 in Calm     91% 0 in meteobridge W/m2
02:54 47.7 °F 45.1 °F 29.97 in Calm     91% 0 in meteobridge W/m2
02:59 47.7 °F 45.1 °F 29.96 in Calm   1 mph 91% 0 in meteobridge W/m2
03:04 47.7 °F 45.1 °F 29.96 in Calm     91% 0 in meteobridge W/m2
03:09 47.7 °F 45.1 °F 29.96 in Calm     91% 0 in meteobridge W/m2
03:14 47.5 °F 45 °F 29.96 in Calm     91% 0 in meteobridge W/m2
03:19 47.5 °F 45.3 °F 29.97 in Calm     92% 0 in meteobridge W/m2
03:24 47.7 °F 45.5 °F 29.96 in Calm     92% 0 in meteobridge W/m2
03:29 47.5 °F 45.3 °F 29.96 in Calm     92% 0 in meteobridge W/m2
03:34 47.5 °F 45.3 °F 29.96 in Calm     92% 0 in meteobridge W/m2
03:39 47.1 °F 45 °F 29.96 in Calm     92% 0 in meteobridge W/m2
03:44 47.1 °F 44.6 °F 29.97 in Calm   1 mph 91% 0 in meteobridge W/m2
03:49 47.1 °F 44.6 °F 29.97 in Calm     91% 0 in meteobridge W/m2
03:54 47.1 °F 44.6 °F 29.97 in Calm     91% 0 in meteobridge W/m2
03:59 46.9 °F 44.8 °F 29.97 in Calm   1 mph 92% 0 in meteobridge W/m2
04:04 46.9 °F 44.8 °F 29.97 in Calm     92% 0 in meteobridge W/m2
04:09 46.9 °F 44.8 °F 29.97 in Calm     92% 0 in meteobridge W/m2
04:14 46.9 °F 44.8 °F 29.96 in Calm     92% 0 in meteobridge W/m2
04:19 46.9 °F 44.8 °F 29.97 in Calm     92% 0 in meteobridge W/m2
04:24 46.9 °F 44.4 °F 29.96 in Calm     91% 0 in meteobridge W/m2
04:29 46.9 °F 44.8 °F 29.96 in Calm     92% 0 in meteobridge W/m2
04:34 46.9 °F 44.8 °F 29.97 in Calm     92% 0 in meteobridge W/m2
04:39 46.8 °F 44.6 °F 29.97 in Calm     92% 0 in meteobridge W/m2
04:44 46.8 °F 44.8 °F 29.97 in Calm     93% 0 in meteobridge W/m2
04:49 46.6 °F 44.4 °F 29.97 in Calm     92% 0 in meteobridge W/m2
04:54 46.6 °F 44.6 °F 29.98 in Calm     93% 0 in meteobridge W/m2
04:59 46.4 °F 44.4 °F 29.98 in Calm     93% 0 in meteobridge W/m2
05:04 46.2 °F 44.2 °F 29.98 in Calm     93% 0 in meteobridge W/m2
05:09 46.2 °F 44.2 °F 29.98 in Calm     93% 0 in meteobridge W/m2
05:14 46 °F 44.1 °F 29.98 in Calm     93% 0 in meteobridge W/m2
05:19 46 °F 44.1 °F 29.98 in Calm     93% 0 in meteobridge W/m2
05:24 46 °F 44.1 °F 29.98 in Calm     93% 0 in meteobridge W/m2
05:29 45.9 °F 44.2 °F 29.98 in Calm     94% 0 in meteobridge W/m2
05:34 45.9 °F 44.2 °F 29.98 in Calm     94% 0 in meteobridge W/m2
05:39 45.7 °F 44.1 °F 29.99 in Calm     94% 0 in meteobridge W/m2
05:44 45.9 °F 44.2 °F 29.99 in Calm     94% 0 in meteobridge W/m2
05:49 45.7 °F 44.1 °F 29.99 in Calm     94% 0 in meteobridge W/m2
05:54 45.3 °F 43.3 °F 29.99 in Calm     93% 0 in meteobridge W/m2
05:59 45.1 °F 43.5 °F 30.00 in Calm     94% 0 in meteobridge W/m2
06:04 45 °F 43.3 °F 29.99 in Calm     94% 0 in meteobridge W/m2
06:09 45 °F 43.3 °F 30.00 in Calm     94% 0 in meteobridge W/m2
06:14 45 °F 43.7 °F 30.00 in Calm     95% 0 in meteobridge W/m2
06:19 45.1 °F 43.9 °F 30.00 in Calm     95% 0 in meteobridge W/m2
06:24 45.1 °F 43.9 °F 30.00 in Calm     95% 0 in meteobridge W/m2
06:29 45.1 °F 43.9 °F 30.00 in Calm     95% 0 in meteobridge W/m2
06:34 45.3 °F 44.1 °F 30.00 in Calm     95% 0 in meteobridge W/m2
06:39 45.1 °F 43.9 °F 30.00 in Calm     95% 0 in meteobridge W/m2
06:44 45.1 °F 43.9 °F 30.00 in Calm     95% 0 in meteobridge W/m2
06:49 45.1 °F 43.9 °F 30.01 in Calm     95% 0 in meteobridge W/m2
06:54 45.1 °F 43.9 °F 30.01 in Calm     95% 0 in meteobridge W/m2
06:59 45.1 °F 43.9 °F 30.01 in Calm     95% 0 in meteobridge W/m2
07:04 45.3 °F 44.1 °F 30.01 in Calm     95% 0 in meteobridge W/m2
07:09 45.3 °F 44.1 °F 30.01 in Calm   1 mph 95% 0 in meteobridge W/m2
07:14 45.3 °F 44.1 °F 30.01 in Calm     95% 0 in meteobridge W/m2
07:19 45.7 °F 44.4 °F 30.02 in Calm   1 mph 95% 0 in meteobridge W/m2
07:24 45.9 °F 44.8 °F 30.02 in Calm     96% 0 in meteobridge W/m2
07:29 45.9 °F 44.4 °F 30.02 in Calm     95% 0 in meteobridge W/m2
07:34 46 °F 44.6 °F 30.03 in Calm     95% 0 in meteobridge W/m2
07:39 46.2 °F 44.8 °F 30.03 in Calm   1 mph 95% 0 in meteobridge W/m2
07:44 46.6 °F 45 °F 30.03 in North 2 mph 2 mph 94% 0 in meteobridge W/m2
07:49 46.9 °F 45 °F 30.03 in Calm   1 mph 93% 0 in meteobridge W/m2
07:54 47.3 °F 45.1 °F 30.03 in Calm   5 mph 92% 0 in meteobridge W/m2
07:59 47.7 °F 45.1 °F 30.03 in Calm   1 mph 91% 0 in meteobridge W/m2
08:04 48.2 °F 46 °F 30.04 in Calm     92% 0 in meteobridge W/m2
08:09 48.6 °F 46 °F 30.04 in North 2.9 mph 6 mph 91% 0 in meteobridge W/m2
08:14 48.9 °F 45.9 °F 30.04 in Calm   6 mph 89% 0 in meteobridge W/m2
08:19 49.5 °F 46 °F 30.04 in Calm   4 mph 88% 0 in meteobridge W/m2
08:24 49.8 °F 45.9 °F 30.04 in Calm   3 mph 86% 0 in meteobridge W/m2
08:29 50.2 °F 46.2 °F 30.04 in West 2.9 mph 5 mph 86% 0 in meteobridge W/m2
08:34 50.5 °F 46.2 °F 30.04 in WNW 4 mph 8 mph 85% 0 in meteobridge W/m2
08:39 50.7 °F 46 °F 30.04 in Calm   4 mph 84% 0 in meteobridge W/m2
08:44 51.1 °F 46.4 °F 30.05 in West 2 mph 3 mph 84% 0 in meteobridge W/m2
08:49 51.3 °F 46.6 °F 30.05 in NE 0.9 mph 6 mph 84% 0 in meteobridge W/m2
08:54 51.4 °F 46.2 °F 30.05 in Calm   4 mph 82% 0 in meteobridge W/m2
08:59 51.8 °F 46.2 °F 30.05 in Calm   2 mph 81% 0 in meteobridge W/m2
09:04 52.2 °F 46.8 °F 30.05 in NNW 4 mph 4 mph 82% 0 in meteobridge W/m2
09:09 52.3 °F 46.4 °F 30.05 in East 0.9 mph 5 mph 80% 0 in meteobridge W/m2
09:14 52.5 °F 46.2 °F 30.05 in Calm   9 mph 79% 0 in meteobridge W/m2
09:19 52.9 °F 46.2 °F 30.05 in Calm     78% 0 in meteobridge W/m2
09:24 53.1 °F 45.3 °F 30.05 in NNE 4.9 mph 5 mph 75% 0 in meteobridge W/m2
09:29 53.4 °F 45.3 °F 30.05 in NNW 2.9 mph 7 mph 74% 0 in meteobridge W/m2
09:34 53.8 °F 44.6 °F 30.05 in WNW 0.9 mph 5 mph 71% 0 in meteobridge W/m2
09:39 54 °F 45.1 °F 30.06 in West 2.9 mph 7 mph 72% 0 in meteobridge W/m2
09:44 54.1 °F 45.3 °F 30.06 in NW 4.9 mph 5 mph 72% 0 in meteobridge W/m2
09:49 54.7 °F 44.8 °F 30.06 in NE 4.9 mph 5 mph 69% 0 in meteobridge W/m2
09:54 54.9 °F 44.4 °F 30.06 in West 0.9 mph 9 mph 68% 0 in meteobridge W/m2
09:59 55 °F 44.6 °F 30.06 in WNW 2.9 mph 10 mph 68% 0 in meteobridge W/m2
10:04 55.2 °F 44.8 °F 30.06 in NW 6 mph 11 mph 68% 0 in meteobridge W/m2
10:09 55.6 °F 45.1 °F 30.06 in NW 4.9 mph 7 mph 68% 0 in meteobridge W/m2
10:14 55.9 °F 45.5 °F 30.06 in WNW 2 mph 5 mph 68% 0 in meteobridge W/m2
10:19 56.1 °F 45.3 °F 30.06 in Calm   3 mph 67% 0 in meteobridge W/m2
10:24 56.5 °F 45.3 °F 30.06 in WNW 4.9 mph 10 mph 66% 0 in meteobridge W/m2
10:29 56.8 °F 44.8 °F 30.06 in Calm   13 mph 64% 0 in meteobridge W/m2
10:34 57 °F 44.6 °F 30.06 in WNW 2 mph 8 mph 63% 0 in meteobridge W/m2
10:39 57 °F 44.6 °F 30.06 in Calm   7 mph 63% 0 in meteobridge W/m2
10:44 57.6 °F 45.1 °F 30.06 in WNW 2.9 mph 10 mph 63% 0 in meteobridge W/m2
10:49 57.7 °F 44.8 °F 30.06 in NW 2.9 mph 3 mph 62% 0 in meteobridge W/m2
10:54 57.9 °F 45 °F 30.06 in Calm   3 mph 62% 0 in meteobridge W/m2
10:59 58.3 °F 44.4 °F 30.06 in Calm   6 mph 60% 0 in meteobridge W/m2
11:04 58.3 °F 44.1 °F 30.06 in WNW 0.9 mph 5 mph 59% 0 in meteobridge W/m2
11:09 58.6 °F 44.4 °F 30.06 in NNE 4.9 mph 5 mph 59% 0 in meteobridge W/m2
11:14 59 °F 44.8 °F 30.06 in West 2.9 mph 10 mph 59% 0 in meteobridge W/m2
11:19 59.5 °F 45.7 °F 30.06 in NNE 2 mph 3 mph 60% 0 in meteobridge W/m2
11:24 60.1 °F 45.7 °F 30.06 in NW 2.9 mph 6 mph 59% 0 in meteobridge W/m2
11:29 60.4 °F 44.6 °F 30.06 in WNW 6 mph 7 mph 56% 0 in meteobridge W/m2
11:34 60.6 °F 44.8 °F 30.06 in East 0.9 mph 5 mph 56% 0 in meteobridge W/m2
11:39 61.2 °F 44.8 °F 30.06 in Calm   10 mph 55% 0 in meteobridge W/m2
11:44 61.2 °F 44.8 °F 30.06 in Calm   3 mph 55% 0 in meteobridge W/m2
11:49 61.2 °F 43.9 °F 30.06 in Calm   5 mph 53% 0 in meteobridge W/m2
11:54 61.3 °F 45 °F 30.07 in ENE 2 mph 7 mph 55% 0 in meteobridge W/m2
11:59 61.5 °F 43.7 °F 30.06 in Calm   2 mph 52% 0 in meteobridge W/m2
12:04 61.9 °F 44.1 °F 30.06 in Calm   5 mph 52% 0 in meteobridge W/m2
12:09 62.1 °F 44.2 °F 30.06 in NW 2.9 mph 9 mph 52% 0 in meteobridge W/m2
12:14 62.1 °F 43.7 °F 30.06 in Calm   6 mph 51% 0 in meteobridge W/m2
12:19 62.4 °F 45.1 °F 30.06 in North 4 mph 6 mph 53% 0 in meteobridge W/m2
12:24 62.8 °F 46.9 °F 30.06 in NW 2.9 mph 3 mph 56% 0 in meteobridge W/m2
12:29 63.1 °F 45.1 °F 30.06 in Calm   7 mph 52% 0 in meteobridge W/m2
12:34 63.5 °F 44.1 °F 30.06 in Calm   5 mph 49% 0 in meteobridge W/m2
12:39 63.7 °F 44.2 °F 30.06 in WNW 2.9 mph 10 mph 49% 0 in meteobridge W/m2
12:44 63.5 °F 45 °F 30.06 in WNW 2 mph 5 mph 51% 0 in meteobridge W/m2
12:49 63.7 °F 44.8 °F 30.06 in Calm   4 mph 50% 0 in meteobridge W/m2
12:54 63.9 °F 44.8 °F 30.06 in Calm   6 mph 50% 0 in meteobridge W/m2
12:59 64 °F 44.4 °F 30.06 in Calm   5 mph 49% 0 in meteobridge W/m2
13:04 64.2 °F 45.1 °F 30.06 in Calm   7 mph 50% 0 in meteobridge W/m2
13:09 64.6 °F 43.9 °F 30.06 in NW 4 mph 5 mph 47% 0 in meteobridge W/m2
13:14 64.8 °F 45.1 °F 30.05 in Calm   10 mph 49% 0 in meteobridge W/m2
13:19 64.9 °F 44.8 °F 30.05 in West 2.9 mph 5 mph 48% 0 in meteobridge W/m2
13:24 64.8 °F 44.1 °F 30.05 in Calm   5 mph 47% 0 in meteobridge W/m2
13:29 64.6 °F 43.3 °F 30.05 in North 0.9 mph 4 mph 46% 0 in meteobridge W/m2
13:34 64.8 °F 43 °F 30.05 in Calm   6 mph 45% 0 in meteobridge W/m2
13:39 65.1 °F 44.4 °F 30.05 in Calm   4 mph 47% 0 in meteobridge W/m2
13:44 65.5 °F 43.5 °F 30.04 in Calm   9 mph 45% 0 in meteobridge W/m2
13:49 65.5 °F 43.5 °F 30.04 in Calm   3 mph 45% 0 in meteobridge W/m2
13:54 65.5 °F 45.3 °F 30.04 in NNW 4 mph 4 mph 48% 0 in meteobridge W/m2
13:59 65.7 °F 45 °F 30.04 in NW 0.9 mph 6 mph 47% 0 in meteobridge W/m2
14:04 65.7 °F 45.5 °F 30.05 in Calm   7 mph 48% 0 in meteobridge W/m2
14:09 65.8 °F 45 °F 30.05 in West 2 mph 2 mph 47% 0 in meteobridge W/m2
14:14 65.7 °F 45.5 °F 30.04 in Calm   2 mph 48% 0 in meteobridge W/m2
14:19 65.8 °F 43.3 °F 30.04 in Calm   6 mph 44% 0 in meteobridge W/m2
14:24 65.8 °F 45 °F 30.04 in Calm   3 mph 47% 0 in meteobridge W/m2
14:29 66 °F 46.4 °F 30.04 in ENE 0.9 mph 8 mph 49% 0 in meteobridge W/m2
14:34 66 °F 45.1 °F 30.04 in East 2 mph 5 mph 47% 0 in meteobridge W/m2
14:39 66 °F 43.5 °F 30.04 in NW 6 mph 6 mph 44% 0 in meteobridge W/m2
14:44 65.8 °F 44.4 °F 30.04 in Calm   5 mph 46% 0 in meteobridge W/m2
14:49 66 °F 43.5 °F 30.03 in Calm   5 mph 44% 0 in meteobridge W/m2
14:54 66.4 °F 45.5 °F 30.03 in Calm   1 mph 47% 0 in meteobridge W/m2
14:59 66.4 °F 44.4 °F 30.03 in WNW 6 mph 6 mph 45% 0 in meteobridge W/m2
15:04 66.6 °F 44.1 °F 30.03 in Calm   2 mph 44% 0 in meteobridge W/m2
15:09 66.4 °F 44.4 °F 30.03 in Calm   3 mph 45% 0 in meteobridge W/m2
15:14 66.7 °F 44.8 °F 30.02 in WNW 2.9 mph 3 mph 45% 0 in meteobridge W/m2
15:19 67.3 °F 44.6 °F 30.02 in Calm   7 mph 44% 0 in meteobridge W/m2
15:24 67.3 °F 44.1 °F 30.02 in NW 2.9 mph 8 mph 43% 0 in meteobridge W/m2
15:29 67.1 °F 44.4 °F 30.02 in Calm   4 mph 44% 0 in meteobridge W/m2
15:34 66.9 °F 42.4 °F 30.02 in NNW 2.9 mph 7 mph 41% 0 in meteobridge W/m2
15:39 66.7 °F 44.1 °F 30.02 in Calm   3 mph 44% 0 in meteobridge W/m2
15:44 66.9 °F 45 °F 30.02 in ENE 4 mph 8 mph 45% 0 in meteobridge W/m2
15:49 66.9 °F 43.2 °F 30.01 in Calm   3 mph 42% 0 in meteobridge W/m2
15:54 67.1 °F 45.7 °F 30.01 in Calm   2 mph 46% 0 in meteobridge W/m2
15:59 66.9 °F 43.7 °F 30.01 in NNW 0.9 mph 4 mph 43% 0 in meteobridge W/m2
16:04 66.7 °F 43 °F 30.01 in NNE 4.9 mph 5 mph 42% 0 in meteobridge W/m2
16:09 66.7 °F 44.1 °F 30.01 in Calm   2 mph 44% 0 in meteobridge W/m2
16:14 66.9 °F 45 °F 30.01 in WNW 2 mph 5 mph 45% 0 in meteobridge W/m2
16:19 66.7 °F 44.1 °F 30.01 in Calm     44% 0 in meteobridge W/m2
16:24 66.9 °F 44.2 °F 30.00 in Calm   2 mph 44% 0 in meteobridge W/m2
16:29 67.1 °F 43.9 °F 30.00 in West 0.9 mph 2 mph 43% 0 in meteobridge W/m2
16:34 67.3 °F 44.1 °F 30.00 in Calm   7 mph 43% 0 in meteobridge W/m2
16:39 67.3 °F 46.4 °F 30.00 in Calm   3 mph 47% 0 in meteobridge W/m2
16:44 67.5 °F 45.3 °F 29.99 in Calm   4 mph 45% 0 in meteobridge W/m2
16:49 67.5 °F 43.5 °F 29.99 in North 6 mph 6 mph 42% 0 in meteobridge W/m2
16:54 67.3 °F 44.1 °F 29.99 in Calm   4 mph 43% 0 in meteobridge W/m2
16:59 66.7 °F 44.1 °F 29.99 in Calm   5 mph 44% 0 in meteobridge W/m2
17:04 66.7 °F 43.5 °F 29.99 in ENE 0.9 mph 3 mph 43% 0 in meteobridge W/m2
17:09 66.7 °F 44.1 °F 29.99 in WNW 2 mph 2 mph 44% 0 in meteobridge W/m2
17:14 66.7 °F 44.1 °F 29.99 in Calm   5 mph 44% 0 in meteobridge W/m2
17:19 67.1 °F 43.9 °F 29.99 in WNW 2 mph 6 mph 43% 0 in meteobridge W/m2
17:24 66.9 °F 45 °F 29.99 in NNW 4 mph 4 mph 45% 0 in meteobridge W/m2
17:29 66.7 °F 45.9 °F 30.00 in Calm   4 mph 47% 0 in meteobridge W/m2
17:34 66.9 °F 46 °F 29.99 in NE 2 mph 7 mph 47% 0 in meteobridge W/m2
17:39 66.9 °F 45 °F 29.99 in Calm   3 mph 45% 0 in meteobridge W/m2
17:44 66.6 °F 44.6 °F 29.99 in Calm   1 mph 45% 0 in meteobridge W/m2
17:49 66.4 °F 44.4 °F 30.00 in Calm   6 mph 45% 0 in meteobridge W/m2
17:54 66.4 °F 45.5 °F 30.00 in Calm   5 mph 47% 0 in meteobridge W/m2
17:59 66.4 °F 45.5 °F 30.00 in Calm   8 mph 47% 0 in meteobridge W/m2
18:04 66.4 °F 45.5 °F 30.00 in Calm   4 mph 47% 0 in meteobridge W/m2
18:09 66.6 °F 45.7 °F 30.00 in Calm   4 mph 47% 0 in meteobridge W/m2
18:14 66.4 °F 46 °F 30.00 in Calm     48% 0 in meteobridge W/m2
18:19 66 °F 45.7 °F 30.00 in Calm   6 mph 48% 0 in meteobridge W/m2
18:24 65.8 °F 45.7 °F 30.00 in North 2 mph 5 mph 48% 0 in meteobridge W/m2
18:29 65.7 °F 45.5 °F 30.00 in Calm   4 mph 48% 0 in meteobridge W/m2
18:34 65.5 °F 45.3 °F 30.00 in Calm   2 mph 48% 0 in meteobridge W/m2
18:39 65.5 °F 45.3 °F 30.00 in Calm   2 mph 48% 0 in meteobridge W/m2
18:44 65.1 °F 45.5 °F 30.00 in NW 0.9 mph 1 mph 49% 0 in meteobridge W/m2
18:49 64.9 °F 44.8 °F 30.01 in NW 0.9 mph 6 mph 48% 0 in meteobridge W/m2
18:54 64.9 °F 45.9 °F 30.01 in Calm   3 mph 50% 0 in meteobridge W/m2
18:59 64.8 °F 46.2 °F 30.00 in NW 2.9 mph 6 mph 51% 0 in meteobridge W/m2
19:04 64.8 °F 46.8 °F 30.01 in Calm     52% 0 in meteobridge W/m2
19:09 64.6 °F 46.6 °F 30.01 in Calm   1 mph 52% 0 in meteobridge W/m2
19:14 64.2 °F 45.7 °F 30.01 in Calm   1 mph 51% 0 in meteobridge W/m2
19:19 64 °F 46 °F 30.01 in Calm   3 mph 52% 0 in meteobridge W/m2
19:24 64 °F 45.5 °F 30.01 in Calm   2 mph 51% 0 in meteobridge W/m2
19:29 63.9 °F 46.4 °F 30.01 in Calm     53% 0 in meteobridge W/m2
19:34 63.7 °F 46.2 °F 30.02 in NNW 0.9 mph 3 mph 53% 0 in meteobridge W/m2
19:39 63.3 °F 46.4 °F 30.02 in Calm   1 mph 54% 0 in meteobridge W/m2
19:44 63 °F 46 °F 30.02 in Calm   3 mph 54% 0 in meteobridge W/m2
19:49 62.8 °F 46.4 °F 30.02 in Calm   1 mph 55% 0 in meteobridge W/m2
19:54 62.4 °F 46 °F 30.02 in Calm   4 mph 55% 0 in meteobridge W/m2
19:59 62.2 °F 46.4 °F 30.03 in Calm   1 mph 56% 0 in meteobridge W/m2
20:04 61.9 °F 46.4 °F 30.03 in Calm   2 mph 57% 0 in meteobridge W/m2
20:09 61.5 °F 46.2 °F 30.03 in Calm   1 mph 57% 0 in meteobridge W/m2
20:14 61.3 °F 48.2 °F 30.03 in Calm   1 mph 62% 0 in meteobridge W/m2
20:19 61 °F 47.8 °F 30.03 in Calm     62% 0 in meteobridge W/m2
20:24 60.3 °F 47.1 °F 30.04 in Calm     62% 0 in meteobridge W/m2
20:29 59.7 °F 47.5 °F 30.04 in Calm     64% 0 in meteobridge W/m2
20:34 59.4 °F 48.7 °F 30.04 in Calm     68% 0 in meteobridge W/m2
20:39 58.6 °F 48.2 °F 30.05 in Calm     68% 0 in meteobridge W/m2
20:44 58.1 °F 48 °F 30.05 in Calm     69% 0 in meteobridge W/m2
20:49 57.7 °F 48 °F 30.05 in Calm     70% 0 in meteobridge W/m2
20:54 57 °F 47.3 °F 30.05 in Calm     70% 0 in meteobridge W/m2
20:59 56.8 °F 48.2 °F 30.05 in Calm     73% 0 in meteobridge W/m2
21:04 56.7 °F 48 °F 30.06 in Calm     73% 0 in meteobridge W/m2
21:09 56.3 °F 48.2 °F 30.06 in Calm     74% 0 in meteobridge W/m2
21:14 55.9 °F 47.8 °F 30.05 in Calm     74% 0 in meteobridge W/m2
21:19 55.6 °F 47.5 °F 30.05 in Calm     74% 0 in meteobridge W/m2
21:24 55 °F 47.3 °F 30.06 in Calm     75% 0 in meteobridge W/m2
21:29 54.9 °F 47.1 °F 30.06 in Calm     75% 0 in meteobridge W/m2
21:34 54.7 °F 47.3 °F 30.06 in Calm     76% 0 in meteobridge W/m2
21:39 54.5 °F 47.5 °F 30.06 in Calm     77% 0 in meteobridge W/m2
21:44 54.1 °F 47.5 °F 30.06 in Calm     78% 0 in meteobridge W/m2
21:49 53.8 °F 47.5 °F 30.06 in Calm     79% 0 in meteobridge W/m2
21:54 53.2 °F 46.9 °F 30.06 in Calm     79% 0 in meteobridge W/m2
21:59 53.1 °F 47.1 °F 30.07 in Calm     80% 0 in meteobridge W/m2
22:04 52.9 °F 47.3 °F 30.07 in Calm     81% 0 in meteobridge W/m2
22:09 52.7 °F 47.1 °F 30.07 in Calm     81% 0 in meteobridge W/m2
22:14 52.3 °F 46.9 °F 30.07 in Calm     82% 0 in meteobridge W/m2
22:19 52.2 °F 47.1 °F 30.07 in Calm     83% 0 in meteobridge W/m2
22:24 52 °F 47.3 °F 30.07 in Calm     84% 0 in meteobridge W/m2
22:29 51.6 °F 46.9 °F 30.07 in Calm     84% 0 in meteobridge W/m2
22:34 51.4 °F 46.8 °F 30.08 in Calm     84% 0 in meteobridge W/m2
22:39 51.1 °F 46.8 °F 30.07 in Calm     85% 0 in meteobridge W/m2
22:44 50.9 °F 46.9 °F 30.07 in Calm     86% 0 in meteobridge W/m2
22:49 50.5 °F 46.6 °F 30.07 in Calm     86% 0 in meteobridge W/m2
22:54 50.4 °F 46.6 °F 30.07 in Calm     87% 0 in meteobridge W/m2
22:59 50.2 °F 46.4 °F 30.07 in Calm     87% 0 in meteobridge W/m2
23:04 50 °F 46.6 °F 30.07 in Calm     88% 0 in meteobridge W/m2
23:09 49.6 °F 46.2 °F 30.07 in Calm     88% 0 in meteobridge W/m2
23:14 49.6 °F 46.2 °F 30.07 in Calm     88% 0 in meteobridge W/m2
23:19 49.5 °F 46.4 °F 30.07 in Calm     89% 0 in meteobridge W/m2
23:24 49.3 °F 46.2 °F 30.08 in Calm     89% 0 in meteobridge W/m2
23:29 49.1 °F 46 °F 30.07 in Calm     89% 0 in meteobridge W/m2
23:34 48.9 °F 45.9 °F 30.07 in Calm     89% 0 in meteobridge W/m2
23:39 48.7 °F 45.7 °F 30.07 in Calm     89% 0.01 in meteobridge W/m2
23:44 48.6 °F 45.7 °F 30.08 in Calm     90% 0.01 in meteobridge W/m2
23:49 48.4 °F 45.5 °F 30.08 in Calm     90% 0.01 in meteobridge W/m2
23:54 48 °F 45.1 °F 30.08 in Calm     90% 0.01 in meteobridge W/m2
23:59 48 °F 45.1 °F 30.07 in Calm     90% 0.01 in meteobridge W/m2
EllijayWeather
Compliments of Weather Underground - 2.5 mb